Time;durP1;ratioP1;P1;durP2;ratioP2;P2;SDS_P1;SDS_P2;PMS_P1;PMS_P2;Temp;Humidity;BMP_temperature;BMP_pressure;BME280_temperature;BME280_humidity;BME280_pressure;Samples;Min_cycle;Max_cycle;Signal;HPM_P1;HPM_P2
2022/01/27 00:03:15;;;;;;;23.30;21.30;;;;;;;22.19;22.48;95666.72;7295337;19;137393;-58
2022/01/27 00:05:47;;;;;;;21.83;19.93;;;;;;;22.20;23.00;95658.44;7294118;19;138280;-58
2022/01/27 00:08:17;;;;;;;22.03;20.23;;;;;;;22.22;23.07;95663.47;7293429;19;137680;-56
2022/01/27 00:10:50;;;;;;;22.57;20.63;;;;;;;22.23;22.50;95665.06;7281461;19;138177;-58
2022/01/27 00:13:18;;;;;;;21.87;19.97;;;;;;;22.23;23.17;95662.41;7293977;19;138309;-58
2022/01/27 00:15:48;;;;;;;21.83;20.00;;;;;;;22.23;23.00;95667.72;7293751;19;138796;-59
2022/01/27 00:18:18;;;;;;;20.97;19.27;;;;;;;22.19;23.11;95656.06;7293338;19;136857;-59
2022/01/27 00:20:45;;;;;;;21.57;19.77;;;;;;;22.22;22.46;95652.84;7279026;19;138647;-58
2022/01/27 00:23:11;;;;;;;21.47;19.67;;;;;;;22.23;22.55;95664.28;7295090;19;137870;-58
2022/01/27 00:25:37;;;;;;;21.63;19.83;;;;;;;22.21;22.77;95654.69;7292726;19;138959;-56
2022/01/27 00:28:05;;;;;;;21.37;19.57;;;;;;;22.23;22.50;95654.41;7292044;19;136754;-57
2022/01/27 00:30:34;;;;;;;21.90;20.10;;;;;;;22.16;22.57;95652.09;7292760;19;138145;-58
2022/01/27 00:33:00;;;;;;;20.60;18.90;;;;;;;22.22;22.51;95663.47;7279415;19;140630;-58
2022/01/27 00:35:26;;;;;;;20.57;18.83;;;;;;;22.23;22.57;95656.28;7293685;19;137126;-59
2022/01/27 00:37:52;;;;;;;19.63;17.93;;;;;;;22.18;22.99;95649.16;7293990;19;137713;-57
2022/01/27 00:40:17;;;;;;;18.87;17.37;;;;;;;22.23;22.99;95659.75;7293496;19;137021;-58
2022/01/27 00:42:44;;;;;;;19.20;17.60;;;;;;;22.16;22.95;95646.75;7279195;19;137221;-57
2022/01/27 00:45:10;;;;;;;18.73;17.10;;;;;;;22.18;22.38;95651.81;7293728;19;136970;-59
2022/01/27 00:47:36;;;;;;;18.27;16.67;;;;;;;22.19;22.72;95650.75;7293112;19;137054;-59
2022/01/27 00:50:02;;;;;;;18.63;17.13;;;;;;;22.21;22.36;95648.59;7292764;19;137319;-57
2022/01/27 00:52:42;;;;;;;18.77;17.17;;;;;;;22.22;22.56;95652.84;7292381;19;138068;-58
2022/01/27 00:55:10;;;;;;;18.13;16.63;;;;;;;22.21;22.29;95657.38;7278028;19;136868;-59
2022/01/27 01:00:18;;;;;;;16.80;15.40;;;;;;;22.21;22.55;95659.22;7293046;19;137103;-57
2022/01/27 01:02:51;;;;;;;17.97;16.47;;;;;;;22.21;22.29;95664.56;7292443;19;138403;-56
2022/01/27 01:07:45;;;;;;;16.80;15.40;;;;;;;22.19;23.00;95656.84;7293580;19;138962;-56
2022/01/27 01:15:41;;;;;;;16.57;15.23;;;;;;;22.19;22.74;95634.78;7279252;19;137677;-59
2022/01/27 01:33:57;;;;;;;17.30;15.90;;;;;;;22.22;22.27;95639.53;7292650;19;138031;-58
2022/01/27 01:36:45;;;;;;;15.70;14.50;;;;;;;22.21;22.39;95640.59;7292273;19;137713;-56
2022/01/27 01:39:12;;;;;;;15.30;14.10;;;;;;;22.21;22.29;95637.94;7279269;19;137084;-56
2022/01/27 01:41:39;;;;;;;15.50;14.20;;;;;;;22.20;22.31;95631.03;7290752;19;137543;-57
2022/01/27 01:44:05;;;;;;;16.40;15.00;;;;;;;22.21;22.68;95633.41;7291732;19;137000;-59
2022/01/27 01:46:30;;;;;;;14.73;13.50;;;;;;;22.21;23.01;95616.66;7298836;19;137414;-58
2022/01/27 01:48:56;;;;;;;15.47;14.17;;;;;;;22.20;22.23;95623.06;7283859;19;138671;-58
2022/01/27 01:51:27;;;;;;;14.67;13.47;;;;;;;22.21;22.25;95617.44;7297402;19;137860;-58
2022/01/27 01:53:54;;;;;;;15.37;14.10;;;;;;;22.14;22.36;95608.19;7297180;19;138316;-57
2022/01/27 01:56:19;;;;;;;14.70;13.50;;;;;;;22.17;22.55;95611.09;7296289;19;137627;-59
2022/01/27 01:58:45;;;;;;;14.00;12.83;;;;;;;22.21;22.93;95616.66;7298866;19;138955;-58
2022/01/27 02:01:11;;;;;;;15.10;13.90;;;;;;;22.21;22.50;95606.78;7285106;19;139304;-58
2022/01/27 02:03:36;;;;;;;14.97;13.77;;;;;;;22.21;22.29;95614.78;7295080;19;138031;-59
2022/01/27 02:06:02;;;;;;;15.13;13.83;;;;;;;22.23;22.56;95616.34;7298531;19;137262;-58
2022/01/27 02:19:39;;;;;;;13.37;12.30;;;;;;;22.21;22.40;95596.16;7297390;19;136802;-59
2022/01/27 02:22:05;;;;;;;13.00;12.00;;;;;;;22.15;22.26;95591.94;7283663;19;137776;-58
2022/01/27 02:24:33;;;;;;;13.00;12.00;;;;;;;22.21;22.57;95598.81;7297495;19;137704;-60
2022/01/27 02:27:00;;;;;;;12.10;11.10;;;;;;;22.19;22.83;95597.50;7297046;19;136804;-59
2022/01/27 02:29:27;;;;;;;13.07;12.07;;;;;;;22.20;22.93;95599.88;7295326;19;137041;-59
2022/01/27 02:31:56;;;;;;;13.03;11.93;;;;;;;22.20;22.25;95605.22;7297497;19;138095;-57
2022/01/27 02:34:22;;;;;;;13.03;11.93;;;;;;;22.19;22.45;95589.53;7280294;19;139087;-58
2022/01/27 02:36:48;;;;;;;12.70;11.60;;;;;;;22.20;22.28;95605.22;7297613;19;136934;-58
2022/01/27 02:39:15;;;;;;;12.03;11.10;;;;;;;22.21;22.40;95595.34;7297391;19;137626;-58
2022/01/27 02:41:49;;;;;;;12.13;11.13;;;;;;;22.20;22.38;95605.22;7296822;19;138223;-59
2022/01/27 02:44:45;;;;;;;12.40;11.40;;;;;;;22.18;22.85;95602.03;7283575;19;138094;-59
2022/01/27 02:47:12;;;;;;;11.37;10.47;;;;;;;22.21;22.48;95609.44;7295335;19;137013;-59
2022/01/27 02:49:38;;;;;;;12.27;11.17;;;;;;;22.20;22.72;95610.53;7294508;19;137179;-58
2022/01/27 02:52:03;;;;;;;10.97;10.07;;;;;;;22.21;22.65;95611.31;7296106;19;137352;-59
2022/01/27 02:54:29;;;;;;;11.97;11.00;;;;;;;22.20;22.66;95615.84;7283404;19;138759;-57
2022/01/27 02:56:54;;;;;;;10.70;9.80;;;;;;;22.19;22.25;95611.63;7296015;19;136881;-57
2022/01/27 02:59:21;;;;;;;10.20;9.50;;;;;;;22.19;22.57;95608.94;7297248;19;136970;-59
2022/01/27 03:01:48;;;;;;;10.80;9.90;;;;;;;22.22;22.48;95618.22;7296618;19;138631;-58
2022/01/27 03:04:15;;;;;;;10.60;9.80;;;;;;;22.19;22.08;95614.28;7295538;19;137729;-59
2022/01/27 03:06:41;;;;;;;10.70;9.90;;;;;;;22.18;22.84;95615.34;7282376;19;136905;-59
2022/01/27 03:09:07;;;;;;;10.70;9.90;;;;;;;22.20;22.75;95615.84;7295061;19;136738;-58
2022/01/27 03:11:59;;;;;;;9.70;9.00;;;;;;;22.15;22.75;95604.47;7295241;19;137681;-56
2022/01/27 03:14:25;;;;;;;10.60;9.70;;;;;;;22.20;22.50;95615.84;7295398;19;139429;-59
2022/01/27 03:16:57;;;;;;;10.57;9.67;;;;;;;22.20;22.51;95609.75;7282638;19;137256;-58
2022/01/27 03:19:23;;;;;;;10.43;9.57;;;;;;;22.21;22.26;95600.69;7295367;19;138072;-59
2022/01/27 03:21:49;;;;;;;9.33;8.63;;;;;;;22.18;22.47;95601.25;7296640;19;137552;-58
2022/01/27 03:24:15;;;;;;;9.73;8.93;;;;;;;22.17;22.64;95604.97;7295571;19;137372;-60
2022/01/27 03:26:42;;;;;;;9.07;8.37;;;;;;;22.21;22.73;95600.69;7295993;19;136819;-60
2022/01/27 03:29:07;;;;;;;9.20;8.50;;;;;;;22.21;22.05;95603.34;7281997;19;136988;-58
2022/01/27 03:31:33;;;;;;;9.20;8.40;;;;;;;22.22;22.60;95607.59;7295956;19;137816;-59
2022/01/27 03:33:59;;;;;;;9.07;8.37;;;;;;;22.21;22.12;95604.13;7295146;19;138118;-59
2022/01/27 03:36:25;;;;;;;8.20;7.60;;;;;;;22.24;22.12;95610.75;7296257;19;137019;-59
2022/01/27 03:38:51;;;;;;;9.20;8.40;;;;;;;22.19;22.52;95597.50;7282654;19;137395;-59
2022/01/27 03:41:20;;;;;;;7.90;7.20;;;;;;;22.26;22.28;95605.94;7295680;19;138137;-59
2022/01/27 03:43:47;;;;;;;8.80;8.10;;;;;;;22.26;22.39;95608.59;7295359;19;137150;-59
2022/01/27 03:46:13;;;;;;;7.57;6.97;;;;;;;22.27;22.52;95612.84;7296027;19;137710;-60
2022/01/27 03:48:38;;;;;;;7.90;7.30;;;;;;;22.29;22.43;95615.22;7293557;19;138071;-59
2022/01/27 03:51:04;;;;;;;7.67;7.07;;;;;;;22.24;22.52;95604.63;7282803;19;137957;-60
2022/01/27 03:53:30;;;;;;;8.80;8.10;;;;;;;22.26;22.70;95605.94;7293260;19;137777;-59
2022/01/27 03:55:57;;;;;;;7.17;6.60;;;;;;;22.27;22.84;95612.84;7292211;19;137345;-55
2022/01/27 03:58:23;;;;;;;8.30;7.60;;;;;;;22.31;22.70;95618.38;7295454;19;136716;-60
2022/01/27 04:00:49;;;;;;;7.70;7.10;;;;;;;22.29;22.68;95616.00;7281553;19;138798;-58
2022/01/27 04:03:17;;;;;;;7.30;6.80;;;;;;;22.30;22.41;95619.44;7294138;19;137449;-59
2022/01/27 04:05:50;;;;;;;7.60;7.00;;;;;;;22.32;22.17;95620.75;7294372;19;136982;-60
2022/01/27 04:08:16;;;;;;;7.50;6.90;;;;;;;22.33;22.24;95619.66;7292779;19;137878;-58
2022/01/27 04:10:42;;;;;;;7.60;7.00;;;;;;;22.33;22.73;95621.53;7295129;19;137129;-57
2022/01/27 04:13:09;;;;;;;6.80;6.30;;;;;;;22.19;22.40;95618.81;7281000;19;137546;-58
2022/01/27 04:15:36;;;;;;;6.90;6.40;;;;;;;22.23;22.56;95619.81;7293566;19;136914;-57
2022/01/27 04:18:02;;;;;;;6.33;5.80;;;;;;;22.25;22.46;95619.53;7294233;19;136690;-57
2022/01/27 04:20:27;;;;;;;6.00;5.60;;;;;;;22.30;23.02;95627.44;7294962;19;137874;-57
2022/01/27 04:22:53;;;;;;;6.50;6.00;;;;;;;22.28;22.69;95625.06;7281172;19;139492;-55
2022/01/27 04:25:18;;;;;;;5.67;5.27;;;;;;;22.28;22.86;95617.06;7293673;19;137963;-56
2022/01/27 04:27:49;;;;;;;6.20;5.70;;;;;;;22.32;22.83;95628.72;7294510;19;136952;-55
2022/01/27 04:30:18;;;;;;;5.90;5.40;;;;;;;22.32;23.12;95627.94;7291749;19;138275;-56
2022/01/27 04:32:52;;;;;;;5.70;5.30;;;;;;;22.24;22.85;95607.28;7293227;19;137746;-56
2022/01/27 04:35:20;;;;;;;5.13;4.73;;;;;;;22.32;22.64;95623.41;7279945;19;138636;-57
2022/01/27 04:38:13;;;;;;;7.03;4.77;;;;;;;22.36;22.71;95629.75;7294491;19;137118;-57
2022/01/27 04:45:44;;;;;;;9.00;4.93;;;;;;;22.35;23.70;95622.06;7282160;19;138882;-56
2022/01/27 04:48:15;;;;;;;6.97;4.70;;;;;;;22.33;23.59;95625.00;7293385;19;137088;-54
2022/01/27 04:50:42;;;;;;;9.53;4.53;;;;;;;22.24;23.68;95610.75;7293987;19;137257;-64
2022/01/27 04:53:12;;;;;;;5.37;4.33;;;;;;;22.40;24.03;95633.44;7290301;19;138304;-57
2022/01/27 04:55:38;;;;;;;5.20;3.80;;;;;;;22.41;23.69;95636.88;7277018;19;138235;-57
2022/01/27 04:58:14;;;;;;;5.07;4.27;;;;;;;22.42;23.98;95639.25;7292354;19;137144;-56
2022/01/27 05:00:40;;;;;;;10.23;4.97;;;;;;;22.44;24.23;95642.44;7293939;19;137807;-57
2022/01/27 05:03:16;;;;;;;5.90;4.40;;;;;;;22.45;24.40;95644.00;7292757;19;138488;-58
2022/01/27 05:05:41;;;;;;;6.03;4.40;;;;;;;22.42;23.95;95652.56;7292817;19;137534;-57
2022/01/27 05:08:15;;;;;;;7.03;4.37;;;;;;;22.41;24.53;95658.97;7279674;19;138178;-58
2022/01/27 05:10:40;;;;;;;8.60;4.70;;;;;;;22.25;24.62;95659.44;7289469;19;137649;-56
2022/01/27 05:13:12;;;;;;;5.23;4.73;;;;;;;22.08;23.95;95651.94;7293446;19;138239;-57
2022/01/27 05:15:43;;;;;;;5.03;4.53;;;;;;;22.04;23.82;95653.56;7291376;19;137157;-57
2022/01/27 05:18:09;;;;;;;5.10;4.60;;;;;;;21.97;23.77;95658.41;7278013;19;137134;-57
2022/01/27 05:20:34;;;;;;;5.80;4.03;;;;;;;21.92;23.67;95668.03;7295696;19;137249;-56
2022/01/27 05:23:00;;;;;;;5.70;4.20;;;;;;;21.94;23.22;95665.09;7299197;19;137511;-57
2022/01/27 05:25:25;;;;;;;5.27;4.30;;;;;;;22.00;24.00;95665.81;7293681;19;137497;-56
2022/01/27 05:27:51;;;;;;;4.60;4.30;;;;;;;22.02;24.09;95666.34;7296329;19;137094;-56
2022/01/27 05:30:16;;;;;;;5.80;4.57;;;;;;;22.02;23.78;95663.69;7283052;19;137877;-56
2022/01/27 05:32:42;;;;;;;8.00;5.03;;;;;;;22.02;24.01;95661.81;7298816;19;138741;-57
2022/01/27 05:35:08;;;;;;;5.20;4.80;;;;;;;22.04;24.27;95664.97;7297510;19;138804;-57
2022/01/27 05:37:33;;;;;;;5.90;5.30;;;;;;;22.10;23.79;95673.72;7299276;19;136941;-57
2022/01/27 05:39:59;;;;;;;6.30;5.80;;;;;;;22.13;23.61;95678.47;7284935;19;137271;-57
2022/01/27 05:42:25;;;;;;;5.90;5.40;;;;;;;22.05;23.72;95660.47;7294704;19;137215;-57
2022/01/27 05:44:50;;;;;;;6.43;4.80;;;;;;;22.09;24.21;95680.13;7294653;19;137227;-56
2022/01/27 05:47:16;;;;;;;5.90;5.40;;;;;;;22.03;24.28;95668.72;7293409;19;136943;-56
2022/01/27 05:49:41;;;;;;;6.00;5.60;;;;;;;22.00;24.65;95665.81;7293601;19;138710;-57
2022/01/27 05:52:07;;;;;;;6.37;5.87;;;;;;;22.04;24.00;95674.84;7279517;19;137918;-56
2022/01/27 05:54:34;;;;;;;5.73;5.30;;;;;;;22.04;24.56;95675.63;7292965;19;137828;-57
2022/01/27 05:57:00;;;;;;;6.23;5.60;;;;;;;22.00;23.75;95677.25;7297849;19;136583;-56
2022/01/27 05:59:25;;;;;;;6.30;5.80;;;;;;;22.03;23.85;95682.03;7301019;19;136962;-56
2022/01/27 06:01:51;;;;;;;8.27;7.50;;;;;;;22.17;23.89;95679.47;7285197;19;137141;-56
2022/01/27 06:04:16;;;;;;;8.00;7.30;;;;;;;22.24;23.96;95692.47;7299392;19;137153;-56
2022/01/27 06:06:42;;;;;;;9.37;8.47;;;;;;;22.19;23.86;95691.47;7298073;19;137290;-55
2022/01/27 06:09:07;;;;;;;8.43;7.83;;;;;;;21.73;24.12;95603.34;7282126;19;138048;-55
2022/01/27 06:11:33;;;;;;;9.43;8.63;;;;;;;22.37;24.11;95697.91;7290944;19;137834;-55
2022/01/27 06:13:58;;;;;;;9.70;8.80;;;;;;;22.41;24.99;95701.56;7275750;19;138036;-55
2022/01/27 06:16:24;;;;;;;11.10;10.00;;;;;;;22.45;24.22;95689.28;7289020;19;138133;-55
2022/01/27 06:18:49;;;;;;;11.80;10.77;;;;;;;22.44;24.90;95697.53;7289711;19;138013;-56
2022/01/27 06:21:17;;;;;;;12.67;11.67;;;;;;;22.45;24.87;95697.25;7287766;19;137636;-57
2022/01/27 06:23:43;;;;;;;11.90;10.90;;;;;;;22.38;24.50;95704.03;7277366;19;140226;-57
2022/01/27 06:26:08;;;;;;;13.53;12.40;;;;;;;22.29;24.88;95695.84;7289661;19;137794;-56
2022/01/27 06:28:34;;;;;;;12.23;11.27;;;;;;;22.34;25.16;95708.31;7289356;19;137465;-56
2022/01/27 06:31:00;;;;;;;12.63;11.57;;;;;;;22.29;24.85;95706.50;7283615;19;137861;-56
2022/01/27 06:33:25;;;;;;;12.67;11.67;;;;;;;22.32;25.05;95708.59;7290792;19;137513;-57
2022/01/27 06:35:51;;;;;;;12.33;11.43;;;;;;;22.30;24.80;95713.41;7275899;19;137974;-56
2022/01/27 06:38:17;;;;;;;13.57;12.47;;;;;;;22.08;25.01;95675.88;7287444;19;137896;-56
2022/01/27 06:40:43;;;;;;;13.53;12.40;;;;;;;22.22;24.62;95703.41;7284370;19;138451;-56
2022/01/27 06:43:12;;;;;;;13.20;12.10;;;;;;;22.27;24.64;95713.97;7290516;19;138325;-56
2022/01/27 06:45:38;;;;;;;13.17;12.07;;;;;;;22.28;25.03;95715.56;7277818;19;140010;-55
2022/01/27 06:48:04;;;;;;;12.80;11.70;;;;;;;22.14;24.51;95690.69;7286711;19;137661;-56
2022/01/27 06:50:31;;;;;;;12.73;11.73;;;;;;;22.25;25.22;95718.81;7280574;19;137747;-57
2022/01/27 06:52:57;;;;;;;12.80;11.80;;;;;;;22.27;24.62;95713.97;7286796;19;138539;-56
2022/01/27 06:55:23;;;;;;;13.10;12.00;;;;;;;22.25;25.15;95718.81;7294996;19;137015;-56
2022/01/27 06:57:50;;;;;;;14.03;12.73;;;;;;;22.18;25.19;95713.81;7283401;19;137168;-55
2022/01/27 07:00:16;;;;;;;12.00;11.10;;;;;;;22.23;24.84;95718.28;7296179;19;137610;-56
2022/01/27 07:02:42;;;;;;;12.80;11.70;;;;;;;22.17;25.19;95711.41;7295253;19;137619;-57
2022/01/27 07:05:07;;;;;;;11.70;10.70;;;;;;;22.19;25.20;95715.41;7295397;19;138223;-57
2022/01/27 07:07:33;;;;;;;13.03;11.90;;;;;;;22.21;25.16;95717.78;7290474;19;137222;-55
2022/01/27 07:09:58;;;;;;;12.50;11.50;;;;;;;22.22;24.84;95724.69;7286380;19;137187;-55
2022/01/27 07:12:24;;;;;;;12.33;11.33;;;;;;;22.22;25.05;95719.38;7296397;19;136895;-56
2022/01/27 07:14:50;;;;;;;12.00;10.93;;;;;;;22.14;24.52;95714.66;7296453;19;138096;-57
2022/01/27 07:17:18;;;;;;;11.43;10.53;;;;;;;22.09;24.49;95701.41;7295950;19;137349;-56
2022/01/27 07:19:43;;;;;;;12.67;11.60;;;;;;;22.09;25.24;95726.16;7283402;19;138706;-56
2022/01/27 07:22:09;;;;;;;11.07;10.17;;;;;;;22.08;25.30;95723.78;7297268;19;137556;-56
2022/01/27 07:24:34;;;;;;;10.67;9.80;;;;;;;22.05;25.03;95724.34;7298232;19;137658;-57
2022/01/27 07:27:00;;;;;;;11.30;10.40;;;;;;;22.06;24.64;95733.91;7297922;19;137782;-56
2022/01/27 07:29:25;;;;;;;12.73;11.73;;;;;;;22.05;24.71;95730.47;7295323;19;137891;-56
2022/01/27 07:31:51;;;;;;;11.63;10.73;;;;;;;22.05;24.81;95732.34;7283524;19;137598;-56
2022/01/27 07:34:16;;;;;;;12.80;11.80;;;;;;;21.99;25.03;95728.09;7296873;19;137538;-56
2022/01/27 07:36:42;;;;;;;13.60;12.50;;;;;;;21.99;24.53;95725.44;7296598;19;137384;-56
2022/01/27 07:39:14;;;;;;;12.70;11.70;;;;;;;22.04;24.42;95736.03;7296761;19;137417;-55
2022/01/27 07:41:41;;;;;;;12.90;11.90;;;;;;;22.02;24.42;95725.69;7281877;19;138426;-55
2022/01/27 07:44:07;;;;;;;14.80;13.60;;;;;;;22.03;24.49;95718.50;7295235;19;137985;-56
2022/01/27 07:46:33;;;;;;;13.50;12.40;;;;;;;22.02;24.92;95727.53;7296679;19;137632;-56
2022/01/27 07:48:58;;;;;;;14.23;13.13;;;;;;;22.01;25.01;95720.63;7295947;19;138127;-54
2022/01/27 07:51:24;;;;;;;15.10;13.90;;;;;;;22.03;24.14;95737.13;7294613;19;137087;-54
2022/01/27 07:53:50;;;;;;;16.53;15.13;;;;;;;22.02;24.61;95733.66;7284302;19;136951;-57
2022/01/27 07:56:15;;;;;;;17.03;15.63;;;;;;;22.01;24.58;95737.41;7295940;19;137387;-55
2022/01/27 07:58:43;;;;;;;18.87;17.27;;;;;;;22.01;24.98;95731.28;7295651;19;137755;-56
2022/01/27 08:01:08;;;;;;;20.73;19.03;;;;;;;22.01;24.74;95744.59;7296326;19;138483;-55
2022/01/27 08:03:36;;;;;;;19.30;17.70;;;;;;;21.98;24.59;95731.81;7282881;19;136963;-54
2022/01/27 08:06:02;;;;;;;22.47;20.57;;;;;;;22.01;24.94;95739.25;7295555;19;137260;-55
2022/01/27 08:08:28;;;;;;;20.93;19.13;;;;;;;22.01;24.50;95741.94;7294886;19;137412;-55
2022/01/27 08:10:53;;;;;;;21.27;19.50;;;;;;;22.01;24.30;95741.94;7293555;19;136964;-56
2022/01/27 08:13:19;;;;;;;21.37;19.57;;;;;;;22.00;24.23;95737.66;7294455;19;136937;-55
2022/01/27 08:15:45;;;;;;;22.53;20.63;;;;;;;22.00;24.71;95740.31;7283301;19;138310;-55
2022/01/27 08:18:10;;;;;;;22.60;20.70;;;;;;;22.00;24.68;95743.75;7295852;19;137024;-56
2022/01/27 08:20:37;;;;;;;20.50;18.80;;;;;;;21.96;24.13;95731.31;7295415;19;137699;-56
2022/01/27 08:23:05;;;;;;;21.20;19.40;;;;;;;22.00;24.55;95740.31;7293336;19;137173;-55
2022/01/27 08:25:31;;;;;;;20.10;18.40;;;;;;;22.00;24.19;95742.97;7281195;19;137443;-56
2022/01/27 08:27:58;;;;;;;19.60;18.00;;;;;;;22.00;24.13;95749.09;7295646;19;137765;-55
2022/01/27 08:30:28;;;;;;;20.37;18.57;;;;;;;22.01;24.29;95744.59;7292902;19;136933;-56
2022/01/27 08:33:05;;;;;;;19.73;18.13;;;;;;;22.00;24.61;95745.63;7293889;19;137016;-55
2022/01/27 08:35:30;;;;;;;20.70;19.00;;;;;;;22.02;24.30;95748.84;7291280;19;137584;-54
2022/01/27 08:37:56;;;;;;;18.83;17.23;;;;;;;22.02;24.05;95751.50;7284522;19;137160;-55
2022/01/27 08:40:22;;;;;;;18.63;17.13;;;;;;;21.79;23.96;95713.13;7294684;19;136855;-56
2022/01/27 08:42:48;;;;;;;16.63;15.33;;;;;;;22.01;23.93;95755.22;7295352;19;137621;-56
2022/01/27 08:45:16;;;;;;;17.30;15.90;;;;;;;22.01;24.09;95749.91;7293866;19;137649;-56
2022/01/27 08:47:43;;;;;;;18.03;16.53;;;;;;;22.01;24.65;95763.22;7281089;19;137677;-54
2022/01/27 08:50:10;;;;;;;16.80;15.47;;;;;;;21.99;24.39;95763.47;7292751;19;137193;-56
2022/01/27 08:52:36;;;;;;;16.20;14.70;;;;;;;21.92;24.00;95747.06;7292314;19;136870;-56
2022/01/27 08:55:05;;;;;;;17.07;15.60;;;;;;;21.98;24.66;95748.56;7292675;19;136991;-55
2022/01/27 08:57:31;;;;;;;15.73;14.43;;;;;;;21.99;24.28;95750.16;7292467;19;137422;-54
2022/01/27 08:59:57;;;;;;;16.73;15.43;;;;;;;22.00;23.98;95759.72;7281565;19;137013;-56
2022/01/27 09:02:22;;;;;;;15.30;14.00;;;;;;;22.00;24.09;95758.94;7294469;19;136840;-56
2022/01/27 09:04:49;;;;;;;15.20;13.97;;;;;;;22.00;24.24;95756.28;7294607;19;137433;-56
2022/01/27 09:07:15;;;;;;;15.33;14.13;;;;;;;22.00;24.30;95761.59;7293312;19;137936;-56
2022/01/27 09:09:42;;;;;;;14.87;13.57;;;;;;;21.99;24.04;95762.66;7279388;19;137719;-57
2022/01/27 09:12:09;;;;;;;15.60;14.30;;;;;;;21.99;24.04;95768.78;7294191;19;137142;-55
2022/01/27 09:14:34;;;;;;;14.63;13.43;;;;;;;21.99;24.19;95762.66;7293546;19;137098;-56
2022/01/27 09:17:00;;;;;;;16.13;14.83;;;;;;;21.98;24.40;95772.53;7293965;19;138199;-56
2022/01/27 09:19:29;;;;;;;17.23;15.80;;;;;;;21.99;23.86;95765.34;7293598;19;137016;-55
2022/01/27 09:21:54;;;;;;;18.83;17.30;;;;;;;22.00;24.31;95761.59;7279177;19;137131;-56
2022/01/27 09:24:28;;;;;;;21.47;19.60;;;;;;;21.99;24.07;95765.34;7294250;19;138366;-56
2022/01/27 09:27:00;;;;;;;18.87;17.30;;;;;;;21.92;23.98;95752.38;7293553;19;137656;-55
2022/01/27 09:29:27;;;;;;;22.63;20.80;;;;;;;22.00;24.52;95765.06;7292056;19;137531;-56
2022/01/27 09:31:52;;;;;;;19.47;17.87;;;;;;;21.97;24.05;95752.31;7280199;19;137655;-55
2022/01/27 09:34:19;;;;;;;21.17;19.37;;;;;;;21.92;24.21;95747.84;7294268;19;138791;-56
2022/01/27 09:36:49;;;;;;;24.87;22.73;;;;;;;21.93;23.84;95738.78;7293039;19;138507;-55
2022/01/27 09:39:16;;;;;;;21.57;19.70;;;;;;;22.00;23.87;95751.75;7293146;19;137034;-55
2022/01/27 09:41:42;;;;;;;23.77;21.80;;;;;;;21.93;24.59;95733.47;7282990;19;137044;-55
2022/01/27 09:44:11;;;;;;;21.67;19.87;;;;;;;22.01;24.45;95745.38;7289910;19;137066;-56
2022/01/27 09:46:41;;;;;;;20.20;18.60;;;;;;;21.99;23.96;95738.72;7293879;19;138362;-55
2022/01/27 09:49:12;;;;;;;23.03;21.03;;;;;;;22.02;24.10;95735.53;7292967;19;137792;-56
2022/01/27 09:51:44;;;;;;;20.30;18.60;;;;;;;22.02;24.46;95732.88;7288945;19;136824;-56
2022/01/27 09:54:12;;;;;;;21.20;19.40;;;;;;;22.03;24.45;95732.59;7278274;19;137897;-55
2022/01/27 09:56:40;;;;;;;20.77;18.97;;;;;;;22.05;24.53;95735.00;7293015;19;136951;-56
2022/01/27 09:59:06;;;;;;;20.70;18.90;;;;;;;22.05;24.39;95735.00;7291968;19;137706;-56
2022/01/27 10:01:31;;;;;;;19.43;17.83;;;;;;;22.05;24.45;95730.47;7292833;19;136992;-56
2022/01/27 10:04:00;;;;;;;19.33;17.73;;;;;;;22.06;24.34;95731.25;7277432;19;138132;-56
2022/01/27 10:06:30;;;;;;;19.17;17.50;;;;;;;22.06;23.82;95733.91;7295481;19;138130;-56
2022/01/27 10:09:19;;;;;;;18.80;17.10;;;;;;;22.07;24.17;95722.97;7300123;19;136896;-57
2022/01/27 10:11:47;;;;;;;18.90;17.33;;;;;;;22.05;24.57;95721.69;7297657;19;136963;-56
2022/01/27 10:14:23;;;;;;;18.97;17.37;;;;;;;22.10;24.32;95726.94;7299653;19;137713;-56
2022/01/27 10:16:52;;;;;;;18.20;16.80;;;;;;;22.10;23.99;95722.41;7287581;19;139044;-56
2022/01/27 10:19:19;;;;;;;16.97;15.50;;;;;;;22.11;24.49;95723.22;7298329;19;137070;-57
2022/01/27 10:21:46;;;;;;;17.73;16.33;;;;;;;22.12;24.01;95714.16;7298815;19;137051;-56
2022/01/27 10:24:27;;;;;;;17.77;16.30;;;;;;;22.14;23.98;95712.78;7298928;19;137086;-56
2022/01/27 10:27:18;;;;;;;16.87;15.47;;;;;;;22.13;24.03;95719.19;7284993;19;137664;-56
2022/01/27 10:30:02;;;;;;;16.90;15.50;;;;;;;22.13;24.08;95719.19;7299019;19;138045;-55
2022/01/27 10:32:46;;;;;;;17.13;15.73;;;;;;;22.15;24.18;95714.38;7298834;19;137788;-57
2022/01/27 10:35:14;;;;;;;17.40;16.00;;;;;;;22.14;23.79;95719.97;7298319;19;137026;-56
2022/01/27 10:38:12;;;;;;;18.37;16.77;;;;;;;22.14;23.91;95719.97;7284933;19;137005;-55
2022/01/27 10:40:42;;;;;;;16.93;15.53;;;;;;;22.21;23.97;95715.13;7298140;19;136846;-56
2022/01/27 10:43:11;;;;;;;17.37;16.00;;;;;;;22.19;23.92;95707.44;7295925;19;136890;-56
2022/01/27 10:45:41;;;;;;;16.73;15.43;;;;;;;22.26;24.19;95711.59;7298940;19;137823;-56
2022/01/27 10:48:35;;;;;;;17.37;15.93;;;;;;;22.32;23.64;95708.59;7285790;19;138261;-56
2022/01/27 10:51:16;;;;;;;16.60;15.30;;;;;;;22.34;23.70;95709.13;7294703;19;136910;-56
2022/01/27 10:53:55;;;;;;;16.03;14.73;;;;;;;22.37;23.80;95703.22;7296375;19;136880;-56
2022/01/27 10:56:27;;;;;;;16.10;14.80;;;;;;;22.38;24.25;95696.81;7297986;19;138551;-56
2022/01/27 10:58:54;;;;;;;16.90;15.60;;;;;;;22.42;23.72;95694.38;7284570;19;137320;-56
2022/01/27 11:01:25;;;;;;;17.57;16.17;;;;;;;22.42;24.15;95700.50;7298013;19;136758;-57
2022/01/27 11:03:52;;;;;;;17.00;15.60;;;;;;;22.39;23.52;95685.09;7297359;19;136978;-56
2022/01/27 11:06:20;;;;;;;18.73;17.13;;;;;;;22.42;24.14;95692.50;7298027;19;138376;-56
2022/01/27 11:08:46;;;;;;;18.97;17.43;;;;;;;22.39;24.12;95698.41;7298665;19;137076;-56
2022/01/27 11:11:13;;;;;;;19.90;18.30;;;;;;;22.34;23.78;95684.34;7281894;19;137466;-57
2022/01/27 11:13:39;;;;;;;20.10;18.50;;;;;;;22.35;23.93;95686.75;7298845;19;137546;-57
2022/01/27 11:16:12;;;;;;;20.67;18.97;;;;;;;22.33;24.41;95672.91;7298040;19;137490;-57
2022/01/27 11:18:38;;;;;;;20.90;19.20;;;;;;;22.35;24.07;95675.31;7297113;19;138052;-56
2022/01/27 11:21:11;;;;;;;22.00;20.10;;;;;;;22.32;23.78;95666.00;7283481;19;137068;-56
2022/01/27 11:26:07;;;;;;;20.77;19.07;;;;;;;22.28;23.63;95675.63;7297091;19;137008;-55
2022/01/27 11:28:33;;;;;;;21.23;19.63;;;;;;;22.27;24.00;95674.06;7298287;19;137579;-55
2022/01/27 11:31:24;;;;;;;22.10;20.30;;;;;;;22.27;23.75;95662.63;7296346;19;137976;-55
2022/01/27 11:34:06;;;;;;;22.20;20.40;;;;;;;22.27;23.63;95657.28;7282739;19;137058;-56
2022/01/27 11:36:32;;;;;;;20.87;19.17;;;;;;;22.24;24.30;95656.00;7295993;19;137583;-56
2022/01/27 11:39:00;;;;;;;21.30;19.60;;;;;;;22.22;24.29;95658.16;7296875;19;137123;-55
2022/01/27 11:41:34;;;;;;;22.50;20.67;;;;;;;22.21;24.40;95656.56;7296092;19;137231;-56
2022/01/27 11:44:22;;;;;;;22.00;20.20;;;;;;;22.23;23.85;95650.97;7284276;19;139611;-56
2022/01/27 11:47:10;;;;;;;21.30;19.50;;;;;;;22.20;24.39;95653.13;7297145;19;137560;-56
2022/01/27 11:49:57;;;;;;;22.47;20.57;;;;;;;22.21;23.92;95653.91;7295957;19;138955;-55
2022/01/27 11:52:31;;;;;;;22.20;20.30;;;;;;;22.21;24.15;95654.69;7294877;19;137586;-55
2022/01/27 11:55:19;;;;;;;21.40;19.70;;;;;;;22.21;24.12;95656.56;7282606;19;138986;-56
2022/01/27 11:57:45;;;;;;;21.33;19.60;;;;;;;22.23;24.55;95643.75;7294037;19;138118;-56
2022/01/27 12:00:17;;;;;;;21.63;19.93;;;;;;;22.26;24.03;95645.06;7296198;19;137810;-56
2022/01/27 12:03:00;;;;;;;23.67;21.63;;;;;;;22.28;24.38;95656.22;7295885;19;137736;-56
2022/01/27 12:05:28;;;;;;;24.13;22.13;;;;;;;22.30;24.09;95651.41;7282333;19;136858;-56
2022/01/27 12:08:09;;;;;;;24.07;22.00;;;;;;;22.34;24.34;95647.06;7295179;19;138248;-56